Main page
METAR-TAF:

METAR-TAF

Airports :

Amsterdam Airport Schiphol

Amsterdam, Netherlands

latitude: 52-18N, longitude: 004-46E, elevation: -4 m

Current weather observation

The report was made 13 minutes ago, at 16:55 UTC
Wind 6 kt from the North/Northeast
Temperature 13°C
Humidity 72%
Pressure 1025 hPa
Visibility 10 km or more
Few clouds at a height of 3700 ft

METAR: EHAM 181655Z 02006KT 9999 FEW037 13/08 Q1025 NOSIG

Time: 19:08 (17:08 UTC)

Forecast

The report was made 6 hours and 22 minutes ago, at 10:46 UTC
Forecast valid from 18 at 12 UTC to 19 at 18 UTC
Wind 10 kt from the North/Northeast
Visibility 10 km or more
Scattered clouds at a height of 2500 ft
Becoming
from 18 at 17 UTC to 18 at 20 UTC
Wind 5 kt from the East/Northeast

TAF: EHAM 181046Z 1812/1918 03010KT 9999 SCT025 BECMG 1817/1820 06005KT

Weather observations and forecasts of more than 4000 airports (METAR and TAF reports).

The available stations are represented by yellow and red dots on the map.

Hover mouse over dot to see the name of the station.

Then click to see weather observations and forecasts.

To change the map : click on the green buttons with a black cross to zoom in, on the green button with a dash to zoom out, or on the green arrows for adjacent maps.


METAR-TAF: